sensor_id;sensor_type;location;lat;lon;timestamp;temperature;humidity
5154;DHT22;2595;53.584;10.084;2023-03-01T00:01:14;2.00;99.90
5154;DHT22;2595;53.584;10.084;2023-03-01T00:03:40;2.00;99.90
5154;DHT22;2595;53.584;10.084;2023-03-01T00:06:05;1.90;99.90
5154;DHT22;2595;53.584;10.084;2023-03-01T00:08:32;1.90;99.90
5154;DHT22;2595;53.584;10.084;2023-03-01T00:11:17;1.80;99.90
5154;DHT22;2595;53.584;10.084;2023-03-01T00:13:44;2.00;99.90
5154;DHT22;2595;53.584;10.084;2023-03-01T00:16:12;1.80;99.90
5154;DHT22;2595;53.584;10.084;2023-03-01T00:18:38;1.80;99.90
5154;DHT22;2595;53.584;10.084;2023-03-01T00:21:04;1.90;99.90
5154;DHT22;2595;53.584;10.084;2023-03-01T00:23:31;1.90;99.90
5154;DHT22;2595;53.584;10.084;2023-03-01T00:25:57;1.90;99.90
5154;DHT22;2595;53.584;10.084;2023-03-01T00:28:22;1.90;99.90
5154;DHT22;2595;53.584;10.084;2023-03-01T00:30:48;1.80;99.90
5154;DHT22;2595;53.584;10.084;2023-03-01T00:33:14;1.70;99.90
5154;DHT22;2595;53.584;10.084;2023-03-01T00:35:39;1.80;99.90
5154;DHT22;2595;53.584;10.084;2023-03-01T00:38:05;1.70;99.90
5154;DHT22;2595;53.584;10.084;2023-03-01T00:40:33;1.70;99.90
5154;DHT22;2595;53.584;10.084;2023-03-01T00:42:59;1.60;99.90
5154;DHT22;2595;53.584;10.084;2023-03-01T00:45:25;1.80;99.90
5154;DHT22;2595;53.584;10.084;2023-03-01T00:47:51;1.80;99.90
5154;DHT22;2595;53.584;10.084;2023-03-01T00:50:17;1.60;99.90
5154;DHT22;2595;53.584;10.084;2023-03-01T00:52:43;1.70;99.90
5154;DHT22;2595;53.584;10.084;2023-03-01T00:55:09;1.70;99.90
5154;DHT22;2595;53.584;10.084;2023-03-01T00:57:35;1.80;99.90
5154;DHT22;2595;53.584;10.084;2023-03-01T01:00:02;1.70;99.90
5154;DHT22;2595;53.584;10.084;2023-03-01T01:02:29;1.80;99.90
5154;DHT22;2595;53.584;10.084;2023-03-01T01:04:55;1.80;99.90
5154;DHT22;2595;53.584;10.084;2023-03-01T01:07:20;1.70;99.90
5154;DHT22;2595;53.584;10.084;2023-03-01T01:09:46;1.60;99.90
5154;DHT22;2595;53.584;10.084;2023-03-01T01:12:12;1.50;99.90
5154;DHT22;2595;53.584;10.084;2023-03-01T01:14:38;1.50;99.90
5154;DHT22;2595;53.584;10.084;2023-03-01T01:17:03;1.50;99.90
5154;DHT22;2595;53.584;10.084;2023-03-01T01:19:29;1.60;99.90
5154;DHT22;2595;53.584;10.084;2023-03-01T01:21:55;1.50;99.90
5154;DHT22;2595;53.584;10.084;2023-03-01T01:24:20;1.50;99.90
5154;DHT22;2595;53.584;10.084;2023-03-01T01:26:46;1.60;99.90
5154;DHT22;2595;53.584;10.084;2023-03-01T01:29:12;1.60;99.90
5154;DHT22;2595;53.584;10.084;2023-03-01T01:31:39;1.60;99.90
5154;DHT22;2595;53.584;10.084;2023-03-01T01:34:06;1.50;99.90
5154;DHT22;2595;53.584;10.084;2023-03-01T01:36:34;1.40;99.90
5154;DHT22;2595;53.584;10.084;2023-03-01T01:39:00;1.60;99.90
5154;DHT22;2595;53.584;10.084;2023-03-01T01:41:30;1.40;99.90
5154;DHT22;2595;53.584;10.084;2023-03-01T01:44:21;1.50;99.90
5154;DHT22;2595;53.584;10.084;2023-03-01T01:47:06;1.60;99.90
5154;DHT22;2595;53.584;10.084;2023-03-01T01:52:16;1.80;99.90
5154;DHT22;2595;53.584;10.084;2023-03-01T01:57:29;1.70;99.90
5154;DHT22;2595;53.584;10.084;2023-03-01T01:59:59;1.80;99.90
5154;DHT22;2595;53.584;10.084;2023-03-01T02:02:26;1.90;99.90
5154;DHT22;2595;53.584;10.084;2023-03-01T02:05:00;1.80;99.90
5154;DHT22;2595;53.584;10.084;2023-03-01T02:07:29;1.80;99.90
5154;DHT22;2595;53.584;10.084;2023-03-01T02:09:55;1.70;99.90
5154;DHT22;2595;53.584;10.084;2023-03-01T02:12:24;1.90;99.90
5154;DHT22;2595;53.584;10.084;2023-03-01T02:14:49;1.90;99.90
5154;DHT22;2595;53.584;10.084;2023-03-01T02:17:16;1.90;99.90
5154;DHT22;2595;53.584;10.084;2023-03-01T02:20:03;1.80;99.90
5154;DHT22;2595;53.584;10.084;2023-03-01T02:22:34;1.80;99.90
5154;DHT22;2595;53.584;10.084;2023-03-01T02:30:43;1.70;99.90
5154;DHT22;2595;53.584;10.084;2023-03-01T02:33:27;1.80;99.90
5154;DHT22;2595;53.584;10.084;2023-03-01T02:35:54;2.00;99.90
5154;DHT22;2595;53.584;10.084;2023-03-01T02:38:22;2.00;99.90
5154;DHT22;2595;53.584;10.084;2023-03-01T02:40:50;2.00;99.90
5154;DHT22;2595;53.584;10.084;2023-03-01T02:43:17;2.00;99.90
5154;DHT22;2595;53.584;10.084;2023-03-01T02:45:52;1.80;99.90
5154;DHT22;2595;53.584;10.084;2023-03-01T02:48:19;1.80;99.90
5154;DHT22;2595;53.584;10.084;2023-03-01T02:53:41;2.00;99.90
5154;DHT22;2595;53.584;10.084;2023-03-01T02:56:13;2.00;99.90
5154;DHT22;2595;53.584;10.084;2023-03-01T02:58:41;2.00;99.90
5154;DHT22;2595;53.584;10.084;2023-03-01T03:01:12;2.10;99.90
5154;DHT22;2595;53.584;10.084;2023-03-01T03:03:40;1.90;99.90
5154;DHT22;2595;53.584;10.084;2023-03-01T03:06:06;1.80;99.90
5154;DHT22;2595;53.584;10.084;2023-03-01T03:08:31;1.90;99.90
5154;DHT22;2595;53.584;10.084;2023-03-01T03:10:57;1.80;99.90
5154;DHT22;2595;53.584;10.084;2023-03-01T03:13:23;1.80;99.90
5154;DHT22;2595;53.584;10.084;2023-03-01T03:15:56;1.90;99.90
5154;DHT22;2595;53.584;10.084;2023-03-01T03:18:23;2.00;99.90
5154;DHT22;2595;53.584;10.084;2023-03-01T03:20:52;1.90;99.90
5154;DHT22;2595;53.584;10.084;2023-03-01T03:23:22;2.00;99.90
5154;DHT22;2595;53.584;10.084;2023-03-01T03:25:49;2.00;99.90
5154;DHT22;2595;53.584;10.084;2023-03-01T03:28:15;2.00;99.90
5154;DHT22;2595;53.584;10.084;2023-03-01T03:30:41;2.10;99.90
5154;DHT22;2595;53.584;10.084;2023-03-01T03:33:08;2.00;99.90
5154;DHT22;2595;53.584;10.084;2023-03-01T03:35:40;2.10;99.90
5154;DHT22;2595;53.584;10.084;2023-03-01T03:38:08;2.00;99.90
5154;DHT22;2595;53.584;10.084;2023-03-01T03:40:42;2.00;99.90
5154;DHT22;2595;53.584;10.084;2023-03-01T03:43:11;2.00;99.90
5154;DHT22;2595;53.584;10.084;2023-03-01T03:45:37;2.00;99.90
5154;DHT22;2595;53.584;10.084;2023-03-01T03:48:05;2.10;99.90
5154;DHT22;2595;53.584;10.084;2023-03-01T03:50:32;2.10;99.90
5154;DHT22;2595;53.584;10.084;2023-03-01T03:53:00;2.10;99.90
5154;DHT22;2595;53.584;10.084;2023-03-01T03:55:26;2.20;99.90
5154;DHT22;2595;53.584;10.084;2023-03-01T03:57:58;2.20;99.90
5154;DHT22;2595;53.584;10.084;2023-03-01T04:00:27;2.20;99.90
5154;DHT22;2595;53.584;10.084;2023-03-01T04:02:53;2.20;99.90
5154;DHT22;2595;53.584;10.084;2023-03-01T04:05:22;2.20;99.90
5154;DHT22;2595;53.584;10.084;2023-03-01T04:07:48;2.20;99.90
5154;DHT22;2595;53.584;10.084;2023-03-01T04:10:16;2.30;99.90
5154;DHT22;2595;53.584;10.084;2023-03-01T04:12:42;2.30;99.90
5154;DHT22;2595;53.584;10.084;2023-03-01T04:15:10;2.30;99.90
5154;DHT22;2595;53.584;10.084;2023-03-01T04:17:43;2.30;99.90
5154;DHT22;2595;53.584;10.084;2023-03-01T04:20:10;2.40;99.90
5154;DHT22;2595;53.584;10.084;2023-03-01T04:22:38;2.40;99.90
5154;DHT22;2595;53.584;10.084;2023-03-01T04:25:04;2.40;99.90
5154;DHT22;2595;53.584;10.084;2023-03-01T04:27:33;2.40;99.90
5154;DHT22;2595;53.584;10.084;2023-03-01T04:29:59;2.40;99.90
5154;DHT22;2595;53.584;10.084;2023-03-01T04:32:25;2.40;99.90
5154;DHT22;2595;53.584;10.084;2023-03-01T04:34:50;2.40;99.90
5154;DHT22;2595;53.584;10.084;2023-03-01T04:37:16;2.50;99.90
5154;DHT22;2595;53.584;10.084;2023-03-01T04:39:41;2.50;99.90
5154;DHT22;2595;53.584;10.084;2023-03-01T04:42:11;2.50;99.90
5154;DHT22;2595;53.584;10.084;2023-03-01T04:44:37;2.50;99.90
5154;DHT22;2595;53.584;10.084;2023-03-01T04:47:04;2.50;99.90
5154;DHT22;2595;53.584;10.084;2023-03-01T04:49:29;2.60;99.90
5154;DHT22;2595;53.584;10.084;2023-03-01T04:51:55;2.60;99.90
5154;DHT22;2595;53.584;10.084;2023-03-01T04:54:23;2.60;99.90
5154;DHT22;2595;53.584;10.084;2023-03-01T04:56:49;2.60;99.90
5154;DHT22;2595;53.584;10.084;2023-03-01T04:59:14;2.60;99.90
5154;DHT22;2595;53.584;10.084;2023-03-01T05:01:40;2.60;99.90
5154;DHT22;2595;53.584;10.084;2023-03-01T05:04:08;2.70;99.90
5154;DHT22;2595;53.584;10.084;2023-03-01T05:06:38;2.60;99.90
5154;DHT22;2595;53.584;10.084;2023-03-01T05:09:04;2.70;99.90
5154;DHT22;2595;53.584;10.084;2023-03-01T05:11:30;2.70;99.90
5154;DHT22;2595;53.584;10.084;2023-03-01T05:13:59;2.70;99.90
5154;DHT22;2595;53.584;10.084;2023-03-01T05:16:24;2.70;99.90
5154;DHT22;2595;53.584;10.084;2023-03-01T05:18:50;2.60;99.90
5154;DHT22;2595;53.584;10.084;2023-03-01T05:21:16;2.70;99.90
5154;DHT22;2595;53.584;10.084;2023-03-01T05:23:42;2.70;99.90
5154;DHT22;2595;53.584;10.084;2023-03-01T05:26:08;2.70;99.90
5154;DHT22;2595;53.584;10.084;2023-03-01T05:28:34;2.60;99.90
5154;DHT22;2595;53.584;10.084;2023-03-01T05:31:00;2.70;99.90
5154;DHT22;2595;53.584;10.084;2023-03-01T05:33:26;2.70;99.90
5154;DHT22;2595;53.584;10.084;2023-03-01T05:35:52;2.70;99.90
5154;DHT22;2595;53.584;10.084;2023-03-01T05:38:19;2.70;99.90
5154;DHT22;2595;53.584;10.084;2023-03-01T05:40:47;2.70;99.90
5154;DHT22;2595;53.584;10.084;2023-03-01T05:43:15;2.80;99.90
5154;DHT22;2595;53.584;10.084;2023-03-01T05:45:42;2.90;99.90
5154;DHT22;2595;53.584;10.084;2023-03-01T05:48:32;2.80;99.90
5154;DHT22;2595;53.584;10.084;2023-03-01T05:51:01;2.80;99.90
5154;DHT22;2595;53.584;10.084;2023-03-01T05:53:26;2.80;99.90
5154;DHT22;2595;53.584;10.084;2023-03-01T05:55:52;2.80;99.90
5154;DHT22;2595;53.584;10.084;2023-03-01T05:58:19;2.80;99.90
5154;DHT22;2595;53.584;10.084;2023-03-01T06:00:46;2.90;99.90
5154;DHT22;2595;53.584;10.084;2023-03-01T06:03:14;2.90;99.90
5154;DHT22;2595;53.584;10.084;2023-03-01T06:05:41;2.80;99.90
5154;DHT22;2595;53.584;10.084;2023-03-01T06:08:06;2.90;99.90
5154;DHT22;2595;53.584;10.084;2023-03-01T06:10:32;2.90;99.90
5154;DHT22;2595;53.584;10.084;2023-03-01T06:12:58;2.90;99.90
5154;DHT22;2595;53.584;10.084;2023-03-01T06:15:24;2.90;99.90
5154;DHT22;2595;53.584;10.084;2023-03-01T06:17:50;2.90;99.90
5154;DHT22;2595;53.584;10.084;2023-03-01T06:20:21;2.90;99.90
5154;DHT22;2595;53.584;10.084;2023-03-01T06:22:47;2.90;99.90
5154;DHT22;2595;53.584;10.084;2023-03-01T06:25:17;2.90;99.90
5154;DHT22;2595;53.584;10.084;2023-03-01T06:27:43;2.90;99.90
5154;DHT22;2595;53.584;10.084;2023-03-01T06:30:14;2.90;99.90
5154;DHT22;2595;53.584;10.084;2023-03-01T06:32:40;3.00;99.90
5154;DHT22;2595;53.584;10.084;2023-03-01T06:35:08;3.00;99.90
5154;DHT22;2595;53.584;10.084;2023-03-01T06:37:34;3.00;99.90
5154;DHT22;2595;53.584;10.084;2023-03-01T06:40:01;3.00;99.90
5154;DHT22;2595;53.584;10.084;2023-03-01T06:42:32;3.00;99.90
5154;DHT22;2595;53.584;10.084;2023-03-01T06:44:58;3.10;99.90
5154;DHT22;2595;53.584;10.084;2023-03-01T06:47:23;3.10;99.90
5154;DHT22;2595;53.584;10.084;2023-03-01T06:49:49;3.10;99.90
5154;DHT22;2595;53.584;10.084;2023-03-01T06:52:14;3.10;99.90
5154;DHT22;2595;53.584;10.084;2023-03-01T06:54:40;3.10;99.90
5154;DHT22;2595;53.584;10.084;2023-03-01T06:57:05;3.10;99.90
5154;DHT22;2595;53.584;10.084;2023-03-01T06:59:31;3.10;99.90
5154;DHT22;2595;53.584;10.084;2023-03-01T07:01:56;3.20;99.90
5154;DHT22;2595;53.584;10.084;2023-03-01T07:04:22;3.20;99.90
5154;DHT22;2595;53.584;10.084;2023-03-01T07:06:48;3.30;99.90
5154;DHT22;2595;53.584;10.084;2023-03-01T07:09:21;3.30;99.90
5154;DHT22;2595;53.584;10.084;2023-03-01T07:11:47;3.40;99.90
5154;DHT22;2595;53.584;10.084;2023-03-01T07:14:13;3.40;99.90
5154;DHT22;2595;53.584;10.084;2023-03-01T07:16:38;3.40;99.90
5154;DHT22;2595;53.584;10.084;2023-03-01T07:19:04;3.40;99.90
5154;DHT22;2595;53.584;10.084;2023-03-01T07:21:30;3.50;99.90
5154;DHT22;2595;53.584;10.084;2023-03-01T07:23:56;3.50;99.90
5154;DHT22;2595;53.584;10.084;2023-03-01T07:26:22;3.50;99.90
5154;DHT22;2595;53.584;10.084;2023-03-01T07:28:47;3.50;99.90
5154;DHT22;2595;53.584;10.084;2023-03-01T07:31:13;3.50;99.90
5154;DHT22;2595;53.584;10.084;2023-03-01T07:33:39;3.50;99.90
5154;DHT22;2595;53.584;10.084;2023-03-01T07:36:05;3.60;99.90
5154;DHT22;2595;53.584;10.084;2023-03-01T07:38:31;3.60;99.90
5154;DHT22;2595;53.584;10.084;2023-03-01T07:41:01;3.60;99.90
5154;DHT22;2595;53.584;10.084;2023-03-01T07:43:28;3.60;99.90
5154;DHT22;2595;53.584;10.084;2023-03-01T07:45:54;3.60;99.90
5154;DHT22;2595;53.584;10.084;2023-03-01T07:48:19;3.60;99.90
5154;DHT22;2595;53.584;10.084;2023-03-01T07:50:45;3.60;99.90
5154;DHT22;2595;53.584;10.084;2023-03-01T07:53:10;3.70;99.90
5154;DHT22;2595;53.584;10.084;2023-03-01T07:55:36;3.70;99.90
5154;DHT22;2595;53.584;10.084;2023-03-01T07:58:02;3.70;99.90
5154;DHT22;2595;53.584;10.084;2023-03-01T08:00:28;3.70;99.90
5154;DHT22;2595;53.584;10.084;2023-03-01T08:02:53;3.80;99.90
5154;DHT22;2595;53.584;10.084;2023-03-01T08:05:19;3.80;99.90
5154;DHT22;2595;53.584;10.084;2023-03-01T08:07:44;3.80;99.90
5154;DHT22;2595;53.584;10.084;2023-03-01T08:10:10;3.80;99.90
5154;DHT22;2595;53.584;10.084;2023-03-01T08:12:36;3.90;99.90
5154;DHT22;2595;53.584;10.084;2023-03-01T08:15:02;3.90;99.90
5154;DHT22;2595;53.584;10.084;2023-03-01T08:17:27;4.00;99.90
5154;DHT22;2595;53.584;10.084;2023-03-01T08:19:53;4.00;99.90
5154;DHT22;2595;53.584;10.084;2023-03-01T08:22:18;4.00;99.90
5154;DHT22;2595;53.584;10.084;2023-03-01T08:24:44;4.00;99.90
5154;DHT22;2595;53.584;10.084;2023-03-01T08:27:09;4.00;99.90
5154;DHT22;2595;53.584;10.084;2023-03-01T08:29:37;4.10;99.90
5154;DHT22;2595;53.584;10.084;2023-03-01T08:32:03;4.10;99.90
5154;DHT22;2595;53.584;10.084;2023-03-01T08:34:28;4.10;99.90
5154;DHT22;2595;53.584;10.084;2023-03-01T08:36:54;4.10;99.90
5154;DHT22;2595;53.584;10.084;2023-03-01T08:39:20;4.10;99.90
5154;DHT22;2595;53.584;10.084;2023-03-01T08:41:46;4.10;99.90
5154;DHT22;2595;53.584;10.084;2023-03-01T08:44:13;4.20;99.90
5154;DHT22;2595;53.584;10.084;2023-03-01T08:46:42;4.20;99.90
5154;DHT22;2595;53.584;10.084;2023-03-01T08:49:11;4.20;99.90
5154;DHT22;2595;53.584;10.084;2023-03-01T08:51:37;4.20;99.90
5154;DHT22;2595;53.584;10.084;2023-03-01T08:54:09;4.30;99.90
5154;DHT22;2595;53.584;10.084;2023-03-01T08:56:36;4.30;99.90
5154;DHT22;2595;53.584;10.084;2023-03-01T08:59:02;4.40;99.90
5154;DHT22;2595;53.584;10.084;2023-03-01T09:01:27;4.40;99.90
5154;DHT22;2595;53.584;10.084;2023-03-01T09:03:53;4.40;99.90
5154;DHT22;2595;53.584;10.084;2023-03-01T09:06:19;4.50;99.90
5154;DHT22;2595;53.584;10.084;2023-03-01T09:08:47;4.50;99.90
5154;DHT22;2595;53.584;10.084;2023-03-01T09:11:15;4.50;99.90
5154;DHT22;2595;53.584;10.084;2023-03-01T09:13:42;4.60;99.90
5154;DHT22;2595;53.584;10.084;2023-03-01T09:16:08;4.60;99.90
5154;DHT22;2595;53.584;10.084;2023-03-01T09:18:35;4.70;99.90
5154;DHT22;2595;53.584;10.084;2023-03-01T09:21:12;4.70;99.90
5154;DHT22;2595;53.584;10.084;2023-03-01T09:23:42;4.70;99.90
5154;DHT22;2595;53.584;10.084;2023-03-01T09:26:10;4.70;99.90
5154;DHT22;2595;53.584;10.084;2023-03-01T09:28:37;4.80;99.90
5154;DHT22;2595;53.584;10.084;2023-03-01T09:31:03;4.80;99.90
5154;DHT22;2595;53.584;10.084;2023-03-01T09:33:30;4.90;99.90
5154;DHT22;2595;53.584;10.084;2023-03-01T09:36:01;4.90;99.90
5154;DHT22;2595;53.584;10.084;2023-03-01T09:38:27;4.90;99.90
5154;DHT22;2595;53.584;10.084;2023-03-01T09:40:53;4.90;99.90
5154;DHT22;2595;53.584;10.084;2023-03-01T09:43:57;4.90;99.90
5154;DHT22;2595;53.584;10.084;2023-03-01T09:46:20;5.00;99.90
5154;DHT22;2595;53.584;10.084;2023-03-01T09:49:03;5.00;99.90
5154;DHT22;2595;53.584;10.084;2023-03-01T09:51:34;5.00;99.90
5154;DHT22;2595;53.584;10.084;2023-03-01T09:54:04;5.00;99.90
5154;DHT22;2595;53.584;10.084;2023-03-01T09:56:36;5.00;99.90
5154;DHT22;2595;53.584;10.084;2023-03-01T10:04:48;5.20;99.90
5154;DHT22;2595;53.584;10.084;2023-03-01T10:10:13;5.30;99.90
5154;DHT22;2595;53.584;10.084;2023-03-01T10:12:41;5.30;99.90
5154;DHT22;2595;53.584;10.084;2023-03-01T10:15:16;5.30;99.90
5154;DHT22;2595;53.584;10.084;2023-03-01T10:17:56;5.30;99.90
5154;DHT22;2595;53.584;10.084;2023-03-01T10:20:26;5.40;99.90
5154;DHT22;2595;53.584;10.084;2023-03-01T10:22:52;5.50;99.90
5154;DHT22;2595;53.584;10.084;2023-03-01T10:25:42;5.60;99.90
5154;DHT22;2595;53.584;10.084;2023-03-01T10:30:59;5.90;99.90
5154;DHT22;2595;53.584;10.084;2023-03-01T10:33:29;6.10;99.90
5154;DHT22;2595;53.584;10.084;2023-03-01T10:35:56;6.40;99.90
5154;DHT22;2595;53.584;10.084;2023-03-01T10:38:21;6.70;99.90
5154;DHT22;2595;53.584;10.084;2023-03-01T10:43:23;7.10;99.90
5154;DHT22;2595;53.584;10.084;2023-03-01T10:45:49;7.30;99.90
5154;DHT22;2595;53.584;10.084;2023-03-01T10:48:22;7.50;99.90
5154;DHT22;2595;53.584;10.084;2023-03-01T10:53:38;7.40;99.90
5154;DHT22;2595;53.584;10.084;2023-03-01T10:58:33;7.20;99.90
5154;DHT22;2595;53.584;10.084;2023-03-01T11:01:02;7.20;99.90
5154;DHT22;2595;53.584;10.084;2023-03-01T11:03:35;7.20;99.90
5154;DHT22;2595;53.584;10.084;2023-03-01T11:08:42;7.20;99.90
5154;DHT22;2595;53.584;10.084;2023-03-01T11:11:44;7.30;99.90
5154;DHT22;2595;53.584;10.084;2023-03-01T11:14:24;7.40;99.90
5154;DHT22;2595;53.584;10.084;2023-03-01T11:17:03;7.50;99.90
5154;DHT22;2595;53.584;10.084;2023-03-01T11:19:30;7.60;99.90
5154;DHT22;2595;53.584;10.084;2023-03-01T11:22:03;7.80;99.90
5154;DHT22;2595;53.584;10.084;2023-03-01T11:24:40;7.90;99.90
5154;DHT22;2595;53.584;10.084;2023-03-01T11:27:19;8.00;99.90
5154;DHT22;2595;53.584;10.084;2023-03-01T11:30:24;8.10;99.90
5154;DHT22;2595;53.584;10.084;2023-03-01T11:33:13;8.20;99.90
5154;DHT22;2595;53.584;10.084;2023-03-01T11:36:05;8.30;99.90
5154;DHT22;2595;53.584;10.084;2023-03-01T11:38:32;8.30;99.90
5154;DHT22;2595;53.584;10.084;2023-03-01T11:51:47;8.60;99.90
5154;DHT22;2595;53.584;10.084;2023-03-01T11:57:55;8.70;99.90
5154;DHT22;2595;53.584;10.084;2023-03-01T12:08:52;9.20;99.90
5154;DHT22;2595;53.584;10.084;2023-03-01T12:25:04;9.80;99.90
5154;DHT22;2595;53.584;10.084;2023-03-01T12:39:32;10.00;99.90
5154;DHT22;2595;53.584;10.084;2023-03-01T12:50:40;10.40;99.90
5154;DHT22;2595;53.584;10.084;2023-03-01T12:55:49;10.50;99.90
5154;DHT22;2595;53.584;10.084;2023-03-01T13:01:45;10.50;99.90
5154;DHT22;2595;53.584;10.084;2023-03-01T13:04:20;10.60;99.90
5154;DHT22;2595;53.584;10.084;2023-03-01T13:07:07;10.60;99.90
5154;DHT22;2595;53.584;10.084;2023-03-01T13:15:35;10.70;99.90
5154;DHT22;2595;53.584;10.084;2023-03-01T13:20:45;10.70;99.90
5154;DHT22;2595;53.584;10.084;2023-03-01T13:31:04;10.60;99.90
5154;DHT22;2595;53.584;10.084;2023-03-01T13:33:46;10.60;99.90
5154;DHT22;2595;53.584;10.084;2023-03-01T13:39:31;10.40;99.90
5154;DHT22;2595;53.584;10.084;2023-03-01T13:41:59;10.30;99.90
5154;DHT22;2595;53.584;10.084;2023-03-01T13:44:36;10.30;99.90
5154;DHT22;2595;53.584;10.084;2023-03-01T13:49:59;10.20;99.90
5154;DHT22;2595;53.584;10.084;2023-03-01T13:52:40;10.20;99.90
5154;DHT22;2595;53.584;10.084;2023-03-01T13:55:15;10.10;99.90
5154;DHT22;2595;53.584;10.084;2023-03-01T13:57:44;10.10;99.90
5154;DHT22;2595;53.584;10.084;2023-03-01T14:00:34;10.10;99.90
5154;DHT22;2595;53.584;10.084;2023-03-01T14:03:15;10.10;99.90
5154;DHT22;2595;53.584;10.084;2023-03-01T14:05:56;10.20;99.90
5154;DHT22;2595;53.584;10.084;2023-03-01T14:08:25;10.20;99.90
5154;DHT22;2595;53.584;10.084;2023-03-01T14:14:16;10.30;99.90
5154;DHT22;2595;53.584;10.084;2023-03-01T14:17:13;10.40;99.90
5154;DHT22;2595;53.584;10.084;2023-03-01T14:20:16;10.50;99.90
5154;DHT22;2595;53.584;10.084;2023-03-01T14:22:43;10.60;99.90
5154;DHT22;2595;53.584;10.084;2023-03-01T14:25:23;10.70;99.90
5154;DHT22;2595;53.584;10.084;2023-03-01T14:30:42;10.80;99.90
5154;DHT22;2595;53.584;10.084;2023-03-01T14:33:26;10.90;99.90
5154;DHT22;2595;53.584;10.084;2023-03-01T14:35:56;11.00;99.90
5154;DHT22;2595;53.584;10.084;2023-03-01T14:38:31;11.00;99.90
5154;DHT22;2595;53.584;10.084;2023-03-01T14:41:01;11.00;99.90
5154;DHT22;2595;53.584;10.084;2023-03-01T14:43:29;11.00;99.90
5154;DHT22;2595;53.584;10.084;2023-03-01T14:45:55;11.00;99.90
5154;DHT22;2595;53.584;10.084;2023-03-01T14:48:21;11.00;99.90
5154;DHT22;2595;53.584;10.084;2023-03-01T14:50:47;11.00;99.90
5154;DHT22;2595;53.584;10.084;2023-03-01T14:53:20;11.00;99.90
5154;DHT22;2595;53.584;10.084;2023-03-01T14:55:50;11.00;99.90
5154;DHT22;2595;53.584;10.084;2023-03-01T14:58:20;11.00;99.90
5154;DHT22;2595;53.584;10.084;2023-03-01T15:01:05;11.00;99.90
5154;DHT22;2595;53.584;10.084;2023-03-01T15:03:38;10.90;99.90
5154;DHT22;2595;53.584;10.084;2023-03-01T15:06:07;10.90;99.90
5154;DHT22;2595;53.584;10.084;2023-03-01T15:08:35;10.80;99.90
5154;DHT22;2595;53.584;10.084;2023-03-01T15:11:20;10.70;99.90
5154;DHT22;2595;53.584;10.084;2023-03-01T15:13:48;10.50;99.90
5154;DHT22;2595;53.584;10.084;2023-03-01T15:16:16;10.40;99.90
5154;DHT22;2595;53.584;10.084;2023-03-01T15:18:50;10.20;99.90
5154;DHT22;2595;53.584;10.084;2023-03-01T15:21:26;10.10;99.90
5154;DHT22;2595;53.584;10.084;2023-03-01T15:24:02;9.90;99.90
5154;DHT22;2595;53.584;10.084;2023-03-01T15:26:33;9.80;99.90
5154;DHT22;2595;53.584;10.084;2023-03-01T15:29:00;9.70;99.90
5154;DHT22;2595;53.584;10.084;2023-03-01T15:31:35;9.50;99.90
5154;DHT22;2595;53.584;10.084;2023-03-01T15:34:23;9.50;99.90
5154;DHT22;2595;53.584;10.084;2023-03-01T15:36:54;9.40;99.90
5154;DHT22;2595;53.584;10.084;2023-03-01T15:42:13;9.20;99.90
5154;DHT22;2595;53.584;10.084;2023-03-01T15:47:34;9.10;99.90
5154;DHT22;2595;53.584;10.084;2023-03-01T15:50:01;9.10;99.90
5154;DHT22;2595;53.584;10.084;2023-03-01T15:52:32;9.00;99.90
5154;DHT22;2595;53.584;10.084;2023-03-01T15:55:04;9.00;99.90
5154;DHT22;2595;53.584;10.084;2023-03-01T15:57:30;8.90;99.90
5154;DHT22;2595;53.584;10.084;2023-03-01T15:59:56;8.90;99.90
5154;DHT22;2595;53.584;10.084;2023-03-01T16:02:23;8.80;99.90
5154;DHT22;2595;53.584;10.084;2023-03-01T16:04:50;8.80;99.90
5154;DHT22;2595;53.584;10.084;2023-03-01T16:07:16;8.80;99.90
5154;DHT22;2595;53.584;10.084;2023-03-01T16:09:41;8.80;99.90
5154;DHT22;2595;53.584;10.084;2023-03-01T16:12:14;8.70;99.90
5154;DHT22;2595;53.584;10.084;2023-03-01T16:14:40;8.70;99.90
5154;DHT22;2595;53.584;10.084;2023-03-01T16:17:06;8.60;99.90
5154;DHT22;2595;53.584;10.084;2023-03-01T16:19:33;8.60;99.90
5154;DHT22;2595;53.584;10.084;2023-03-01T16:21:59;8.50;99.90
5154;DHT22;2595;53.584;10.084;2023-03-01T16:24:24;8.50;99.90
5154;DHT22;2595;53.584;10.084;2023-03-01T16:26:51;8.50;99.90
5154;DHT22;2595;53.584;10.084;2023-03-01T16:29:17;8.40;99.90
5154;DHT22;2595;53.584;10.084;2023-03-01T16:31:42;8.40;99.90
5154;DHT22;2595;53.584;10.084;2023-03-01T16:34:08;8.40;99.90
5154;DHT22;2595;53.584;10.084;2023-03-01T16:36:33;8.30;99.90
5154;DHT22;2595;53.584;10.084;2023-03-01T16:39:00;8.30;99.90
5154;DHT22;2595;53.584;10.084;2023-03-01T16:41:27;8.30;99.90
5154;DHT22;2595;53.584;10.084;2023-03-01T16:43:53;8.20;99.90
5154;DHT22;2595;53.584;10.084;2023-03-01T16:46:25;8.10;99.90
5154;DHT22;2595;53.584;10.084;2023-03-01T16:48:51;8.10;99.90
5154;DHT22;2595;53.584;10.084;2023-03-01T16:51:18;8.00;99.90
5154;DHT22;2595;53.584;10.084;2023-03-01T16:53:44;8.00;99.90
5154;DHT22;2595;53.584;10.084;2023-03-01T16:56:11;8.00;99.90
5154;DHT22;2595;53.584;10.084;2023-03-01T16:58:38;7.90;99.90
5154;DHT22;2595;53.584;10.084;2023-03-01T17:01:12;7.90;99.90
5154;DHT22;2595;53.584;10.084;2023-03-01T17:03:39;7.90;99.90
5154;DHT22;2595;53.584;10.084;2023-03-01T17:06:07;7.90;99.90
5154;DHT22;2595;53.584;10.084;2023-03-01T17:08:33;7.80;99.90
5154;DHT22;2595;53.584;10.084;2023-03-01T17:11:07;7.70;99.90
5154;DHT22;2595;53.584;10.084;2023-03-01T17:13:33;7.70;99.90
5154;DHT22;2595;53.584;10.084;2023-03-01T17:16:01;7.60;99.90
5154;DHT22;2595;53.584;10.084;2023-03-01T17:18:27;7.60;99.90
5154;DHT22;2595;53.584;10.084;2023-03-01T17:20:52;7.60;99.90
5154;DHT22;2595;53.584;10.084;2023-03-01T17:23:18;7.60;99.90
5154;DHT22;2595;53.584;10.084;2023-03-01T17:25:44;7.60;99.90
5154;DHT22;2595;53.584;10.084;2023-03-01T17:28:11;7.50;99.90
5154;DHT22;2595;53.584;10.084;2023-03-01T17:30:37;7.50;99.90
5154;DHT22;2595;53.584;10.084;2023-03-01T17:33:02;7.40;99.90
5154;DHT22;2595;53.584;10.084;2023-03-01T17:35:28;7.50;99.90
5154;DHT22;2595;53.584;10.084;2023-03-01T17:37:54;7.40;99.90
5154;DHT22;2595;53.584;10.084;2023-03-01T17:40:19;7.40;99.90
5154;DHT22;2595;53.584;10.084;2023-03-01T17:42:46;7.40;99.90
5154;DHT22;2595;53.584;10.084;2023-03-01T17:45:11;7.30;99.90
5154;DHT22;2595;53.584;10.084;2023-03-01T17:47:37;7.20;99.90
5154;DHT22;2595;53.584;10.084;2023-03-01T17:50:03;7.10;99.90
5154;DHT22;2595;53.584;10.084;2023-03-01T17:52:30;7.00;99.90
5154;DHT22;2595;53.584;10.084;2023-03-01T17:54:55;6.90;99.90
5154;DHT22;2595;53.584;10.084;2023-03-01T17:57:21;6.80;99.90
5154;DHT22;2595;53.584;10.084;2023-03-01T17:59:47;6.70;99.90
5154;DHT22;2595;53.584;10.084;2023-03-01T18:02:12;6.60;99.90
5154;DHT22;2595;53.584;10.084;2023-03-01T18:04:38;6.60;99.90
5154;DHT22;2595;53.584;10.084;2023-03-01T18:07:04;6.60;99.90
5154;DHT22;2595;53.584;10.084;2023-03-01T18:09:29;6.50;99.90
5154;DHT22;2595;53.584;10.084;2023-03-01T18:11:55;6.40;99.90
5154;DHT22;2595;53.584;10.084;2023-03-01T18:14:21;6.30;99.90
5154;DHT22;2595;53.584;10.084;2023-03-01T18:16:47;6.20;99.90
5154;DHT22;2595;53.584;10.084;2023-03-01T18:19:13;6.10;99.90
5154;DHT22;2595;53.584;10.084;2023-03-01T18:21:38;6.00;99.90
5154;DHT22;2595;53.584;10.084;2023-03-01T18:24:04;5.90;99.90